Time;durP1;ratioP1;P1;durP2;ratioP2;P2;SDS_P1;SDS_P2;PMS_P1;PMS_P2;Temp;Humidity;BMP_temperature;BMP_pressure;BME280_temperature;BME280_humidity;BME280_pressure;Samples;Min_cycle;Max_cycle;Signal;HPM_P1;HPM_P2
2023/01/21 00:01:45;;;;;;;40.17;19.27;;;;;;;1.05;100.00;102647.72;5014884;28;20037;-83
2023/01/21 00:04:10;;;;;;;35.63;17.27;;;;;;;1.01;100.00;102654.88;5004501;28;20037;-83
2023/01/21 00:06:36;;;;;;;38.80;18.50;;;;;;;1.08;100.00;102657.41;5024979;28;20573;-82
2023/01/21 00:09:02;;;;;;;39.40;17.95;;;;;;;1.00;100.00;102644.97;5024829;28;20033;-83
2023/01/21 00:11:28;;;;;;;36.67;17.77;;;;;;;1.10;100.00;102663.50;5019421;28;20029;-82
2023/01/21 00:13:53;;;;;;;35.45;17.23;;;;;;;1.10;100.00;102672.59;5011050;28;20048;-82
2023/01/21 00:16:18;;;;;;;36.83;16.17;;;;;;;1.01;100.00;102666.78;5003145;28;20072;-82
2023/01/21 00:18:46;;;;;;;42.72;18.45;;;;;;;1.08;100.00;102672.03;5004524;28;20061;-82
2023/01/21 00:21:12;;;;;;;40.35;17.15;;;;;;;1.09;100.00;102681.13;5008055;28;20021;-82
2023/01/21 00:23:37;;;;;;;35.20;17.13;;;;;;;1.12;100.00;102689.69;5008406;28;20037;-82
2023/01/21 00:26:05;;;;;;;40.05;17.95;;;;;;;1.07;100.00;102689.66;5022107;28;20112;-82
2023/01/21 00:28:34;;;;;;;33.97;15.40;;;;;;;0.94;100.00;102690.97;5008054;28;20539;-82
2023/01/21 00:31:01;;;;;;;41.55;17.23;;;;;;;1.01;100.00;102697.09;5026748;28;20033;-82
2023/01/21 00:33:28;;;;;;;33.88;16.58;;;;;;;0.96;100.00;102710.03;5021900;28;20047;-81
2023/01/21 00:35:59;;;;;;;32.83;16.55;;;;;;;0.87;100.00;102706.94;5022112;28;20417;-82
2023/01/21 00:38:24;;;;;;;33.65;17.02;;;;;;;0.89;100.00;102709.44;5004823;28;20124;-81
2023/01/21 00:40:49;;;;;;;38.58;17.17;;;;;;;0.75;100.00;102709.91;5021907;28;20112;-82
2023/01/21 00:43:15;;;;;;;35.50;16.52;;;;;;;0.93;100.00;102705.88;5006607;28;20034;-81
2023/01/21 00:45:40;;;;;;;36.42;16.83;;;;;;;0.89;100.00;102707.50;5024355;28;20029;-81
2023/01/21 00:48:05;;;;;;;35.90;16.48;;;;;;;0.95;100.00;102713.88;5008242;28;20155;-81
2023/01/21 00:50:31;;;;;;;42.92;19.63;;;;;;;0.95;100.00;102713.88;5023451;28;20049;-81
2023/01/21 00:52:56;;;;;;;38.30;17.77;;;;;;;0.91;100.00;102708.06;5007727;28;20932;-82
2023/01/21 00:55:21;;;;;;;37.05;17.83;;;;;;;0.98;100.00;102714.16;5022190;28;20111;-81
2023/01/21 00:57:47;;;;;;;39.50;18.50;;;;;;;0.92;100.00;102708.91;5002521;28;20394;-81
2023/01/21 01:00:13;;;;;;;44.20;18.80;;;;;;;0.98;100.00;102722.44;5023540;28;20036;-81
2023/01/21 01:02:39;;;;;;;41.53;18.05;;;;;;;0.95;100.00;102731.25;5019131;28;20043;-81
2023/01/21 01:05:07;;;;;;;36.03;16.80;;;;;;;0.92;100.00;102731.78;5023109;28;20390;-81
2023/01/21 01:07:32;;;;;;;41.33;18.83;;;;;;;0.80;100.00;102720.97;5018186;28;20192;-81
2023/01/21 01:09:58;;;;;;;33.47;16.77;;;;;;;0.82;100.00;102728.97;5005760;28;20612;-81
2023/01/21 01:12:23;;;;;;;36.80;16.42;;;;;;;0.87;100.00;102717.97;4998290;28;20531;-81
2023/01/21 01:14:48;;;;;;;37.85;16.70;;;;;;;0.91;100.00;102734.81;5024053;28;20033;-83
2023/01/21 01:17:14;;;;;;;40.67;18.27;;;;;;;0.87;100.00;102731.75;5005231;28;20041;-81
2023/01/21 01:19:39;;;;;;;40.22;18.02;;;;;;;0.76;100.00;102733.63;5014425;28;20017;-81
2023/01/21 01:22:04;;;;;;;38.30;18.67;;;;;;;0.72;100.00;102739.94;5012702;28;20381;-81
2023/01/21 01:24:30;;;;;;;35.65;15.63;;;;;;;0.85;100.00;102746.91;5010555;28;20053;-81
2023/01/21 01:26:55;;;;;;;37.38;16.15;;;;;;;0.83;100.00;102738.91;5008387;28;20037;-81
2023/01/21 01:29:21;;;;;;;44.00;18.83;;;;;;;0.80;100.00;102750.44;5018162;28;21142;-81
2023/01/21 01:31:46;;;;;;;38.45;17.23;;;;;;;0.84;100.00;102743.31;5022209;28;20030;-81
2023/01/21 01:34:12;;;;;;;38.60;18.20;;;;;;;0.79;100.00;102751.56;5024457;28;20044;-81
2023/01/21 01:36:37;;;;;;;40.10;19.10;;;;;;;0.81;100.00;102763.16;5025274;28;20026;-81
2023/01/21 01:39:04;;;;;;;37.75;16.75;;;;;;;0.72;100.00;102760.06;5008397;28;20059;-83
2023/01/21 01:41:33;;;;;;;37.72;17.92;;;;;;;0.71;100.00;102766.66;5009473;28;20030;-81
2023/01/21 01:44:26;;;;;;;46.90;20.83;;;;;;;0.68;100.00;102769.13;5028226;28;20368;-82
2023/01/21 01:46:57;;;;;;;38.15;18.30;;;;;;;0.80;100.00;102775.25;4984823;28;20045;-81
2023/01/21 01:49:22;;;;;;;41.42;18.38;;;;;;;0.62;100.00;102775.69;5010674;28;20037;-83
2023/01/21 01:51:55;;;;;;;40.72;17.48;;;;;;;0.58;100.00;102776.22;5033064;28;20017;-83
2023/01/21 01:54:27;;;;;;;38.33;17.23;;;;;;;0.71;100.00;102780.44;5013337;28;20025;-79
2023/01/21 01:56:55;;;;;;;;;;;;;;;0.73;100.00;102783.75;5008977;28;20048;-80
2023/01/21 01:59:20;;;;;;;39.30;16.65;;;;;;;0.66;100.00;102782.34;5025282;28;19999;-82
2023/01/21 02:01:46;;;;;;;36.90;15.85;;;;;;;0.70;100.00;102795.34;5007818;28;20167;-82
2023/01/21 02:04:16;;;;;;;34.83;16.40;;;;;;;0.69;100.00;102788.13;5013516;28;20056;-81
2023/01/21 02:06:44;;;;;;;39.85;16.38;;;;;;;0.69;100.00;102790.91;5008747;28;20017;-82
2023/01/21 02:09:09;;;;;;;44.08;18.58;;;;;;;0.70;100.00;102789.00;5011263;28;20033;-82
2023/01/21 02:11:35;;;;;;;39.03;15.55;;;;;;;0.58;100.00;102786.41;5011478;28;20381;-81
2023/01/21 02:14:02;;;;;;;41.83;18.98;;;;;;;0.67;100.00;102797.78;5010094;28;20102;-82
2023/01/21 02:17:00;;;;;;;44.17;17.75;;;;;;;0.47;100.00;102802.03;5028530;28;20028;-82
2023/01/21 02:20:09;;;;;;;36.50;18.08;;;;;;;0.42;100.00;102815.75;5027975;28;20385;-81
2023/01/21 02:22:59;;;;;;;39.67;17.10;;;;;;;0.54;100.00;102813.66;5025006;28;20389;-81
2023/01/21 02:25:25;;;;;;;41.83;18.98;;;;;;;0.26;100.00;102817.53;5025462;28;20497;-81
2023/01/21 02:28:05;;;;;;;39.65;18.42;;;;;;;0.49;100.00;102805.34;5025639;28;20033;-82
2023/01/21 02:30:38;;;;;;;41.75;19.67;;;;;;;0.27;100.00;102818.34;5004718;28;20034;-82
2023/01/21 02:33:16;;;;;;;37.30;18.02;;;;;;;0.47;100.00;102829.59;5018095;28;20033;-82
2023/01/21 02:35:50;;;;;;;40.88;19.05;;;;;;;0.60;100.00;102831.91;5000336;28;20042;-81
2023/01/21 02:38:18;;;;;;;41.03;17.60;;;;;;;0.64;100.00;102836.91;5001802;28;20489;-82
2023/01/21 02:41:08;;;;;;;45.25;18.95;;;;;;;0.22;100.00;102841.19;5004518;28;20401;-82
2023/01/21 02:44:06;;;;;;;44.13;19.30;;;;;;;0.38;100.00;102844.91;5017936;28;20067;-82
2023/01/21 02:46:48;;;;;;;46.25;18.20;;;;;;;0.39;100.00;102843.81;4985708;28;20045;-81
2023/01/21 02:49:23;;;;;;;44.40;19.88;;;;;;;0.42;100.00;102848.81;5015271;28;20906;-81
2023/01/21 02:51:48;;;;;;;45.63;20.67;;;;;;;0.20;100.00;102846.94;5002530;28;20030;-81
2023/01/21 02:54:39;;;;;;;46.92;20.50;;;;;;;0.53;100.00;102861.59;4998200;28;20060;-82
2023/01/21 02:57:32;;;;;;;45.25;18.60;;;;;;;0.65;100.00;102874.38;5000814;28;20405;-82
2023/01/21 02:59:59;;;;;;;53.25;22.55;;;;;;;0.38;100.00;102870.56;5001649;28;20497;-81
2023/01/21 03:03:03;;;;;;;46.70;19.52;;;;;;;0.59;100.00;102866.06;5022020;28;20398;-81
2023/01/21 03:05:28;;;;;;;47.95;20.30;;;;;;;0.40;100.00;102882.16;4988619;28;20041;-81
2023/01/21 03:08:06;;;;;;;50.90;22.02;;;;;;;0.51;100.00;102888.59;5024863;28;20048;-82
2023/01/21 03:10:34;;;;;;;43.22;19.67;;;;;;;0.52;100.00;102892.16;5007536;28;20544;-81
2023/01/21 03:13:05;;;;;;;47.65;20.20;;;;;;;0.47;100.00;102894.88;5022375;28;20455;-81
2023/01/21 03:18:28;;;;;;;42.20;20.40;;;;;;;0.70;100.00;102890.97;5022201;28;20179;-82
2023/01/21 03:20:58;;;;;;;49.92;21.90;;;;;;;0.53;100.00;102889.16;5006189;28;20033;-81
2023/01/21 03:23:36;;;;;;;48.72;21.40;;;;;;;0.53;100.00;102891.91;5024505;28;20122;-82
2023/01/21 03:26:03;;;;;;;49.83;20.50;;;;;;;0.52;100.00;102887.47;5023309;28;20147;-81
2023/01/21 03:28:35;;;;;;;51.67;19.98;;;;;;;0.51;100.00;102874.81;5008637;28;20348;-81
2023/01/21 03:31:10;;;;;;;56.35;23.95;;;;;;;0.24;100.00;102887.75;5009148;28;20048;-81
2023/01/21 03:33:40;;;;;;;46.65;21.30;;;;;;;0.38;100.00;102894.50;5013080;28;20083;-82
2023/01/21 03:36:22;;;;;;;50.63;21.88;;;;;;;0.47;100.00;102895.72;5010506;28;20029;-81
2023/01/21 03:38:50;;;;;;;48.92;21.30;;;;;;;0.26;100.00;102899.34;5020727;28;20041;-81
2023/01/21 03:41:20;;;;;;;49.72;21.05;;;;;;;0.52;100.00;102908.69;5005470;28;20033;-81
2023/01/21 03:43:45;;;;;;;54.60;23.63;;;;;;;0.44;100.00;102907.22;5012111;28;20021;-81
2023/01/21 03:46:21;;;;;;;43.78;19.30;;;;;;;0.48;100.00;102904.81;5024652;28;20025;-81
2023/01/21 03:48:58;;;;;;;52.70;21.25;;;;;;;0.62;100.00;102908.81;5023611;28;20037;-81
2023/01/21 03:51:31;;;;;;;53.80;21.80;;;;;;;0.39;100.00;102920.97;5010648;28;20501;-81
2023/01/21 03:53:58;;;;;;;46.75;19.83;;;;;;;0.42;100.00;102903.91;5025304;28;20707;-81
2023/01/21 03:56:25;;;;;;;53.33;21.58;;;;;;;0.57;100.00;102906.84;5024715;28;20041;-81
2023/01/21 03:58:50;;;;;;;46.83;20.10;;;;;;;0.59;100.00;102912.94;5029050;28;20029;-82
2023/01/21 04:01:16;;;;;;;48.08;19.65;;;;;;;0.38;100.00;102911.88;5029744;28;20508;-81
2023/01/21 04:03:42;;;;;;;49.42;22.35;;;;;;;0.48;100.00;102915.81;5031312;28;20029;-82
2023/01/21 04:06:15;;;;;;;51.45;20.95;;;;;;;0.36;100.00;102916.00;5032279;28;20037;-81
2023/01/21 04:08:40;;;;;;;45.58;20.63;;;;;;;0.46;100.00;102909.72;5003311;28;20389;-81
2023/01/21 04:11:06;;;;;;;50.03;21.77;;;;;;;0.54;100.00;102926.63;5009415;28;20025;-81
2023/01/21 04:13:31;;;;;;;47.70;21.75;;;;;;;0.37;100.00;102921.22;5025892;28;20049;-81
2023/01/21 04:15:56;;;;;;;54.83;21.75;;;;;;;-0.19;100.00;102916.94;5029023;28;20155;-81
2023/01/21 04:18:21;;;;;;;52.47;22.45;;;;;;;-0.23;100.00;102919.41;5031880;28;20076;-81
2023/01/21 04:20:47;;;;;;;51.67;22.33;;;;;;;0.16;100.00;102919.31;5030475;28;20037;-83
2023/01/21 04:23:12;;;;;;;52.17;22.42;;;;;;;0.30;100.00;102923.34;5031488;28;20025;-81
2023/01/21 04:25:38;;;;;;;63.22;23.63;;;;;;;0.17;100.00;102926.50;5024312;28;20028;-81
2023/01/21 04:28:03;;;;;;;56.50;22.17;;;;;;;0.06;100.00;102939.28;5011951;28;20035;-81
2023/01/21 04:30:28;;;;;;;58.30;24.40;;;;;;;0.06;100.00;102944.81;5022354;28;20037;-81
2023/01/21 04:32:54;;;;;;;52.75;21.60;;;;;;;0.13;100.00;102934.44;5026581;28;20028;-82
2023/01/21 04:35:19;;;;;;;53.95;24.80;;;;;;;0.25;100.00;102941.72;5011667;28;20110;-82
2023/01/21 04:37:44;;;;;;;62.00;23.90;;;;;;;-0.12;100.00;102945.13;5013050;28;20021;-82
2023/01/21 04:40:10;;;;;;;56.08;24.45;;;;;;;-0.09;100.00;102941.88;5007419;28;20061;-82
2023/01/21 04:42:36;;;;;;;58.90;23.00;;;;;;;0.02;100.00;102948.34;5022625;28;20174;-81
2023/01/21 04:45:01;;;;;;;61.30;23.67;;;;;;;0.18;100.00;102945.50;5024838;28;20075;-81
2023/01/21 04:47:27;;;;;;;59.88;22.63;;;;;;;0.44;100.00;102947.72;5026489;28;20116;-81
2023/01/21 04:49:52;;;;;;;56.38;23.30;;;;;;;0.09;100.00;102949.81;5025673;28;20052;-81
2023/01/21 04:52:18;;;;;;;56.28;23.83;;;;;;;0.26;100.00;102951.69;5033790;28;20061;-81
2023/01/21 04:54:43;;;;;;;58.25;24.25;;;;;;;0.45;100.00;102953.00;5008556;28;20393;-81
2023/01/21 04:57:09;;;;;;;57.10;22.20;;;;;;;0.45;100.00;102957.69;5029631;28;20033;-81
2023/01/21 04:59:35;;;;;;;51.85;22.73;;;;;;;0.41;100.00;102935.31;5007925;28;20040;-81
2023/01/21 05:02:00;;;;;;;57.95;22.80;;;;;;;0.43;100.00;102954.34;5012269;28;20029;-82
2023/01/21 05:04:25;;;;;;;56.67;23.60;;;;;;;0.48;100.00;102952.47;5008405;28;20014;-81
2023/01/21 05:06:54;;;;;;;56.90;23.75;;;;;;;0.39;100.00;102949.34;5027085;28;20036;-81
2023/01/21 05:09:19;;;;;;;55.28;22.58;;;;;;;0.38;100.00;102949.59;5012517;28;20076;-81
2023/01/21 05:11:45;;;;;;;54.92;23.13;;;;;;;0.10;100.00;102956.97;5025143;28;20074;-82
2023/01/21 05:14:10;;;;;;;65.75;25.10;;;;;;;0.16;100.00;102944.94;5019455;28;20403;-81
2023/01/21 05:16:35;;;;;;;56.50;22.73;;;;;;;0.43;100.00;102946.91;5008099;28;20026;-82
2023/01/21 05:19:01;;;;;;;61.65;23.15;;;;;;;0.48;100.00;102946.94;5011707;28;20025;-81
2023/01/21 05:21:26;;;;;;;63.20;22.88;;;;;;;0.42;100.00;102945.22;5027239;28;20068;-81
2023/01/21 05:23:51;;;;;;;59.47;23.92;;;;;;;0.66;100.00;102948.53;5009902;28;20029;-81
2023/01/21 05:26:18;;;;;;;52.22;21.00;;;;;;;0.59;100.00;102947.91;5018076;28;20380;-81
2023/01/21 05:28:43;;;;;;;61.30;24.25;;;;;;;0.65;100.00;102951.53;5026538;28;20543;-81
2023/01/21 05:31:08;;;;;;;67.70;25.40;;;;;;;0.60;100.00;102950.41;5000939;28;20069;-82
2023/01/21 05:33:34;;;;;;;62.35;24.88;;;;;;;0.62;100.00;102963.09;5010049;28;20500;-81
2023/01/21 05:36:01;;;;;;;53.03;24.70;;;;;;;0.60;100.00;102966.94;5018378;28;20026;-83
2023/01/21 05:38:27;;;;;;;63.67;24.90;;;;;;;0.66;100.00;102958.75;5016866;28;20055;-81
2023/01/21 05:40:57;;;;;;;59.55;23.58;;;;;;;0.66;100.00;102969.75;5025660;28;20668;-81
2023/01/21 05:43:23;;;;;;;53.03;21.98;;;;;;;0.64;100.00;102971.94;5008814;28;20480;-82
2023/01/21 05:45:48;;;;;;;55.15;22.88;;;;;;;0.67;100.00;102983.25;4999981;28;20052;-83
2023/01/21 05:48:14;;;;;;;58.05;23.15;;;;;;;0.63;100.00;102984.03;5007454;28;20517;-81
2023/01/21 05:50:39;;;;;;;56.70;23.65;;;;;;;0.66;100.00;102970.59;5023672;28;20028;-82
2023/01/21 05:53:04;;;;;;;55.95;23.83;;;;;;;0.71;100.00;102978.91;5007242;28;20044;-82
2023/01/21 05:55:30;;;;;;;52.92;22.55;;;;;;;0.68;100.00;102979.44;5023148;28;20131;-83
2023/01/21 05:57:55;;;;;;;68.57;23.45;;;;;;;0.74;100.00;102983.91;5021809;28;20044;-81
2023/01/21 06:00:20;;;;;;;56.90;22.88;;;;;;;0.69;100.00;102980.25;5006030;28;20029;-81
2023/01/21 06:02:46;;;;;;;59.00;21.17;;;;;;;0.75;100.00;102985.56;5007272;28;20320;-82
2023/01/21 06:05:11;;;;;;;64.38;23.20;;;;;;;0.67;100.00;102994.28;5023719;28;20458;-81
2023/01/21 06:07:37;;;;;;;55.58;22.13;;;;;;;0.66;100.00;102994.56;5022032;28;20060;-82
2023/01/21 06:10:02;;;;;;;55.55;21.98;;;;;;;0.70;100.00;103010.31;5015226;28;20040;-81
2023/01/21 06:12:28;;;;;;;58.92;23.27;;;;;;;0.73;100.00;103008.97;5007937;28;20612;-81
2023/01/21 06:14:53;;;;;;;47.42;23.23;;;;;;;0.71;100.00;103016.66;5018838;28;20545;-81
2023/01/21 06:17:19;;;;;;;59.65;24.00;;;;;;;0.79;100.00;103018.97;5002547;28;20038;-82
2023/01/21 06:19:44;;;;;;;55.15;20.63;;;;;;;0.78;100.00;103022.78;5000486;28;20112;-82
2023/01/21 06:22:15;;;;;;;48.20;19.00;;;;;;;0.70;100.00;103028.78;5000472;28;20029;-81
2023/01/21 06:24:41;;;;;;;58.28;22.23;;;;;;;0.75;100.00;103031.59;5000656;28;20486;-81
2023/01/21 06:27:06;;;;;;;49.60;19.52;;;;;;;0.71;100.00;103038.72;5016328;28;20120;-81
2023/01/21 06:29:31;;;;;;;49.72;20.58;;;;;;;0.71;100.00;103045.06;5012791;28;20033;-83
2023/01/21 06:31:57;;;;;;;50.65;20.20;;;;;;;0.37;100.00;103042.44;5018401;28;20171;-81
2023/01/21 06:34:22;;;;;;;47.78;19.92;;;;;;;0.62;100.00;103062.31;5002177;28;20518;-83
2023/01/21 06:36:48;;;;;;;50.88;20.65;;;;;;;0.68;100.00;103053.03;5020804;28;20029;-81
2023/01/21 06:39:14;;;;;;;52.45;19.95;;;;;;;0.56;100.00;103042.94;5007569;28;20473;-81
2023/01/21 06:41:39;;;;;;;56.65;19.70;;;;;;;0.74;100.00;103043.72;5005095;28;20091;-82
2023/01/21 06:44:05;;;;;;;60.38;21.25;;;;;;;0.73;100.00;103053.91;5007116;28;20791;-82
2023/01/21 06:46:30;;;;;;;44.28;18.90;;;;;;;0.79;100.00;103063.06;5020121;28;20029;-82
2023/01/21 06:48:56;;;;;;;49.70;19.83;;;;;;;0.66;100.00;103063.47;5008025;28;20029;-81
2023/01/21 06:51:21;;;;;;;46.30;18.65;;;;;;;0.46;100.00;103064.88;5001737;28;20029;-82
2023/01/21 06:53:46;;;;;;;49.50;17.83;;;;;;;0.63;100.00;103063.97;5005158;28;20504;-82
2023/01/21 06:56:12;;;;;;;52.40;18.65;;;;;;;0.71;100.00;103071.78;5004674;28;20029;-81
2023/01/21 06:58:37;;;;;;;44.83;18.73;;;;;;;0.75;100.00;103072.94;5008175;28;21962;-82
2023/01/21 07:01:02;;;;;;;56.63;18.42;;;;;;;0.77;100.00;103068.00;5004424;28;20087;-83
2023/01/21 07:03:28;;;;;;;50.83;18.73;;;;;;;0.90;100.00;103088.84;5021015;28;20033;-81
2023/01/21 07:05:54;;;;;;;48.40;17.98;;;;;;;0.92;100.00;103092.16;5008623;28;20033;-82
2023/01/21 07:08:19;;;;;;;43.00;18.98;;;;;;;0.95;100.00;103097.16;5020334;28;20033;-81
2023/01/21 07:10:45;;;;;;;48.53;20.48;;;;;;;0.99;100.00;103104.69;5018214;28;20211;-81
2023/01/21 07:13:10;;;;;;;51.90;18.25;;;;;;;0.80;100.00;103104.19;5001694;28;20382;-82
2023/01/21 07:15:36;;;;;;;51.13;20.58;;;;;;;0.91;100.00;103104.31;5003562;28;20128;-84
2023/01/21 07:18:01;;;;;;;51.17;19.10;;;;;;;0.96;100.00;103113.44;5019998;28;20045;-82
2023/01/21 07:20:27;;;;;;;47.03;17.98;;;;;;;0.98;100.00;103114.03;5019427;28;20056;-82
2023/01/21 07:22:52;;;;;;;48.10;18.10;;;;;;;0.99;100.00;103114.84;5021413;28;20113;-82
2023/01/21 07:25:18;;;;;;;55.17;18.77;;;;;;;0.91;100.00;103107.06;5019035;28;20021;-82
2023/01/21 07:27:43;;;;;;;50.42;19.90;;;;;;;0.92;100.00;103112.28;5000131;28;20025;-82
2023/01/21 07:30:15;;;;;;;49.65;18.50;;;;;;;1.04;100.00;103127.91;5018645;28;20477;-82
2023/01/21 07:32:40;;;;;;;44.55;17.02;;;;;;;0.97;100.00;103131.69;5023571;28;20039;-82
2023/01/21 07:35:06;;;;;;;49.05;17.25;;;;;;;0.95;100.00;103127.50;5007629;28;20029;-82
2023/01/21 07:37:31;;;;;;;51.10;17.73;;;;;;;1.00;100.00;103130.31;5022686;28;20068;-81
2023/01/21 07:39:56;;;;;;;47.55;18.83;;;;;;;0.98;100.00;103138.84;5017079;28;20056;-82
2023/01/21 07:42:22;;;;;;;41.90;17.55;;;;;;;0.98;100.00;103136.09;5015571;28;20035;-82
2023/01/21 07:44:47;;;;;;;50.60;18.02;;;;;;;1.04;100.00;103147.19;5003718;28;20021;-82
2023/01/21 07:47:12;;;;;;;45.92;19.33;;;;;;;1.07;100.00;103157.69;5001661;28;20056;-82
2023/01/21 07:49:39;;;;;;;51.35;20.52;;;;;;;1.05;100.00;103154.38;5001695;28;20032;-82
2023/01/21 07:52:04;;;;;;;48.45;18.67;;;;;;;0.96;100.00;103167.78;5004820;28;20079;-82
2023/01/21 07:54:30;;;;;;;49.75;17.73;;;;;;;0.89;100.00;103173.50;5026524;28;20053;-81
2023/01/21 07:56:56;;;;;;;48.97;19.48;;;;;;;1.02;100.00;103170.34;5010439;28;20022;-82
2023/01/21 07:59:22;;;;;;;46.75;17.00;;;;;;;0.99;100.00;103176.38;5011522;28;20053;-82
2023/01/21 08:01:47;;;;;;;48.40;18.98;;;;;;;0.99;100.00;103190.16;5023230;28;20034;-81
2023/01/21 08:04:12;;;;;;;49.03;19.13;;;;;;;1.05;100.00;103190.22;5024154;28;20018;-82
2023/01/21 08:06:40;;;;;;;56.00;20.20;;;;;;;0.97;100.00;103185.97;5017654;28;20030;-82
2023/01/21 08:09:06;;;;;;;50.78;18.88;;;;;;;0.95;100.00;103182.63;5005514;28;20513;-82
2023/01/21 08:11:31;;;;;;;58.05;22.70;;;;;;;0.92;100.00;103184.00;5005864;28;20033;-82
2023/01/21 08:13:57;;;;;;;60.20;19.88;;;;;;;0.96;100.00;103185.16;5021321;28;20184;-82
2023/01/21 08:16:22;;;;;;;59.30;19.23;;;;;;;1.07;100.00;103196.31;5004063;28;20040;-82
2023/01/21 08:18:47;;;;;;;54.20;19.75;;;;;;;0.96;100.00;103198.94;5022725;28;20051;-82
2023/01/21 08:21:13;;;;;;;59.85;19.80;;;;;;;1.08;100.00;103198.00;5019107;28;20021;-82
2023/01/21 08:23:38;;;;;;;57.47;19.85;;;;;;;1.02;100.00;103206.19;5009890;28;20030;-82
2023/01/21 08:26:05;;;;;;;55.95;19.33;;;;;;;1.10;100.00;103193.88;5026342;28;20827;-82
2023/01/21 08:28:30;;;;;;;61.17;19.08;;;;;;;1.11;100.00;103208.50;5021685;28;20025;-82
2023/01/21 08:31:08;;;;;;;53.67;19.17;;;;;;;1.11;100.00;103191.97;5000588;28;20056;-82
2023/01/21 08:33:34;;;;;;;61.95;20.23;;;;;;;1.11;100.00;103197.47;5006337;28;20025;-81
2023/01/21 08:36:04;;;;;;;52.08;19.00;;;;;;;1.06;100.00;103194.66;5001677;28;20025;-81
2023/01/21 08:38:31;;;;;;;54.08;19.58;;;;;;;1.15;100.00;103193.09;5007883;28;20025;-82
2023/01/21 08:40:59;;;;;;;47.47;20.55;;;;;;;1.17;100.00;103190.94;5004523;28;20155;-81
2023/01/21 08:43:26;;;;;;;60.40;19.65;;;;;;;1.17;100.00;103188.16;5014282;28;20174;-82
2023/01/21 08:45:55;;;;;;;43.95;18.05;;;;;;;1.08;100.00;103192.47;5018350;28;20551;-82
2023/01/21 08:48:20;;;;;;;56.25;22.45;;;;;;;1.05;100.00;103190.22;5018115;28;20502;-82
2023/01/21 08:50:46;;;;;;;51.38;19.40;;;;;;;1.10;100.00;103206.84;5000364;28;20141;-82
2023/01/21 08:53:11;;;;;;;56.35;20.38;;;;;;;1.14;100.00;103208.84;5003055;28;20044;-82
2023/01/21 08:55:36;;;;;;;50.08;17.85;;;;;;;1.18;100.00;103214.66;5020282;28;20029;-82
2023/01/21 08:58:02;;;;;;;57.50;21.35;;;;;;;1.11;100.00;103214.03;5015351;28;20029;-82
2023/01/21 09:00:28;;;;;;;54.25;19.48;;;;;;;1.06;100.00;103216.72;5019705;28;20132;-82
2023/01/21 09:02:54;;;;;;;46.45;18.58;;;;;;;1.26;100.00;103216.97;5021477;28;20156;-82
2023/01/21 09:05:20;;;;;;;53.60;20.23;;;;;;;1.29;100.00;103229.44;5010526;28;20488;-82
2023/01/21 09:07:45;;;;;;;51.70;18.85;;;;;;;1.08;100.00;103223.66;5021748;28;20071;-82
2023/01/21 09:10:11;;;;;;;55.22;21.73;;;;;;;1.05;100.00;103220.56;5011721;28;20409;-82
2023/01/21 09:12:39;;;;;;;47.65;17.20;;;;;;;1.14;100.00;103219.88;5027567;28;20492;-82
2023/01/21 09:15:05;;;;;;;56.05;20.75;;;;;;;0.93;100.00;103226.22;5012715;28;20410;-82
2023/01/21 09:17:30;;;;;;;47.92;17.40;;;;;;;1.02;100.00;103221.91;5013294;28;20041;-82
2023/01/21 09:19:55;;;;;;;55.60;21.38;;;;;;;1.13;100.00;103217.34;5021938;28;20045;-82
2023/01/21 09:22:21;;;;;;;45.92;17.05;;;;;;;1.21;100.00;103225.19;5001355;28;20076;-81
2023/01/21 09:24:46;;;;;;;53.17;18.73;;;;;;;1.26;100.00;103222.47;5026531;28;20105;-82
2023/01/21 09:27:12;;;;;;;54.63;22.15;;;;;;;1.32;100.00;103226.16;5012014;28;20469;-78
2023/01/21 09:29:37;;;;;;;55.88;19.90;;;;;;;1.31;100.00;103225.31;5024717;28;20083;-78
2023/01/21 09:32:04;;;;;;;55.75;20.63;;;;;;;1.04;100.00;103235.47;5009339;28;20037;-78
2023/01/21 09:34:29;;;;;;;51.33;19.20;;;;;;;1.22;100.00;103237.88;5025837;28;20029;-78
2023/01/21 09:36:55;;;;;;;55.10;20.58;;;;;;;1.17;100.00;103232.31;5024107;28;20393;-78
2023/01/21 09:39:20;;;;;;;46.65;18.23;;;;;;;1.08;100.00;103231.94;5027583;28;20029;-78
2023/01/21 09:41:52;;;;;;;48.40;19.27;;;;;;;1.17;100.00;103248.88;5010620;28;20042;-78
2023/01/21 09:44:32;;;;;;;50.88;19.58;;;;;;;1.13;100.00;103242.19;5011544;28;20029;-78
2023/01/21 09:47:22;;;;;;;50.45;19.20;;;;;;;1.11;100.00;103255.41;5005434;28;20485;-79
2023/01/21 09:49:50;;;;;;;53.72;19.38;;;;;;;1.31;100.00;103243.81;5022709;28;20065;-78
2023/01/21 09:52:23;;;;;;;40.35;16.45;;;;;;;1.42;100.00;103240.91;5017367;28;20031;-79
2023/01/21 09:54:49;;;;;;;47.88;18.20;;;;;;;1.40;100.00;103237.56;5025352;28;20038;-79
2023/01/21 09:57:31;;;;;;;41.97;16.70;;;;;;;1.11;100.00;103241.59;5022101;28;20482;-78
2023/01/21 09:59:59;;;;;;;39.47;15.60;;;;;;;1.31;100.00;103252.91;5018651;28;20021;-78
2023/01/21 10:02:46;;;;;;;41.97;17.95;;;;;;;1.37;100.00;103257.41;5026521;28;20034;-78
2023/01/21 10:05:21;;;;;;;46.28;16.55;;;;;;;1.25;100.00;103264.97;5028386;28;20040;-79
2023/01/21 10:08:09;;;;;;;42.38;18.10;;;;;;;1.25;100.00;103258.63;5033057;28;20025;-78
2023/01/21 10:10:54;;;;;;;45.47;18.27;;;;;;;1.38;100.00;103270.09;4981729;28;20485;-79
2023/01/21 10:13:29;;;;;;;45.45;17.95;;;;;;;1.31;100.00;103263.94;5016345;28;20030;-78
2023/01/21 10:16:18;;;;;;;43.35;17.02;;;;;;;1.31;100.00;103272.22;5031865;28;20057;-79
2023/01/21 10:18:46;;;;;;;47.72;17.58;;;;;;;1.37;100.00;103276.72;4989138;28;20409;-79
2023/01/21 10:21:50;;;;;;;45.13;18.27;;;;;;;1.49;100.00;103273.81;5026663;28;20049;-79
2023/01/21 10:24:23;;;;;;;47.13;17.92;;;;;;;1.45;100.00;103272.66;4986292;28;20045;-79
2023/01/21 10:26:51;;;;;;;;;;;;;;;1.26;100.00;103272.16;5014496;28;20116;-80
2023/01/21 10:29:20;;;;;;;50.25;18.20;;;;;;;1.08;100.00;103267.78;5027073;28;19962;-79
2023/01/21 10:32:03;;;;;;;47.42;17.85;;;;;;;1.24;100.00;103277.09;5022767;28;20100;-78
2023/01/21 10:34:29;;;;;;;;;;;;;;;1.39;100.00;103288.34;5036345;28;20037;-79
2023/01/21 10:37:24;;;;;;;43.60;16.65;;;;;;;1.37;100.00;103292.44;5008913;28;19908;-79
2023/01/21 10:39:58;;;;;;;52.08;18.70;;;;;;;1.15;100.00;103292.41;5031183;28;20030;-79
2023/01/21 10:42:33;;;;;;;46.53;17.70;;;;;;;0.92;100.00;103287.94;5016354;28;20032;-79
2023/01/21 10:45:36;;;;;;;51.88;19.50;;;;;;;1.34;100.00;103292.94;5026068;28;20048;-79
2023/01/21 10:48:35;;;;;;;49.08;19.40;;;;;;;1.33;100.00;103288.50;5024370;28;20033;-79
2023/01/21 10:51:47;;;;;;;53.67;19.27;;;;;;;0.95;100.00;103288.28;5012077;28;20038;-80
2023/01/21 10:54:21;;;;;;;48.20;17.67;;;;;;;1.30;100.00;103292.63;5003655;28;20124;-81
2023/01/21 10:57:09;;;;;;;52.10;19.30;;;;;;;1.18;100.00;103291.91;5031320;28;20029;-79
2023/01/21 10:59:37;;;;;;;40.85;15.48;;;;;;;0.99;100.00;103283.94;5020127;28;20029;-79
2023/01/21 11:02:08;;;;;;;55.92;20.02;;;;;;;1.35;100.00;103289.09;5024405;28;20033;-79
2023/01/21 11:04:35;;;;;;;51.63;21.90;;;;;;;1.50;100.00;103288.47;5008817;28;20022;-79
2023/01/21 11:07:07;;;;;;;54.88;21.20;;;;;;;1.26;100.00;103294.22;5008807;28;20018;-80
2023/01/21 11:09:44;;;;;;;56.33;21.30;;;;;;;1.35;100.00;103295.47;5004479;28;20049;-78
2023/01/21 11:12:16;;;;;;;69.75;25.00;;;;;;;0.90;100.00;103290.13;5006870;28;20045;-79
2023/01/21 11:14:46;;;;;;;61.13;23.73;;;;;;;1.18;100.00;103287.25;5011826;28;20025;-79
2023/01/21 11:17:11;;;;;;;64.13;23.55;;;;;;;1.06;100.00;103281.00;5021008;28;20072;-80
2023/01/21 11:19:37;;;;;;;74.55;27.20;;;;;;;1.16;100.00;103289.41;5020484;28;20046;-80
2023/01/21 11:22:19;;;;;;;84.18;25.40;;;;;;;1.12;100.00;103298.47;5018649;28;20038;-78